Kezdőlap
METAR-TAF:

METAR-TAF

Repülőterek :

Kansas City, Missouri, Amerikai Egyesült Államok

földrajzi szélesség: 39-17-50N, földrajzi hosszúság: 094-43-50W, magasság: 312 m

Jelenlegi meteorológiai megfigyelések

A jelentés 37 perccel ezelõtt készült, 14:53 UTC
Délkeleti szél 3 kt
Hőmérséklet -4°C
Páratartalom 100%
Légköri nyomás 1023 hPa
Látótávolság: 4.8 km
Borult 20000 lábon
Párásság

METAR: KMCI 211453Z 13003KT 3SM BR OVC200 M04/M04 A3020 RMK AO2 SLP236 I3/// T10391039 53028

Idő: 09:30 (15:30 UTC)

Előrejelzés

A jelentés 49 perccel ezelõtt készült, 14:41 UTC
Az előrejelzés 21-én 15 óra UTC és 22-én 12 óra UTC között érvényes
Keleti szél 5 kt
Látótávolság: 8.0 km
Borult 20000 lábon
Párásság
21-én 1600 órától UTC szerint
Keleti szél 7 kt
Látótávolság: 10 km
Szakadozott felhőzet 18000 lábon

TAF: KMCI 211441Z 2115/2212 09005KT 5SM BR OVC200 FM211600 10007KT P6SM BKN180

Meteorológiai megfigyelések és előrejelzések több, mint 4000 repülőtéren (METAR és TAF jelentéseket).

A térképen piros és sárga pontok jelzik az elérhető meteorológiai állomásokat.

Mozgassa az egeret a pont fölött, hogy megjelenjen az állomás neve.

Azután kattintson az időjárási megfigyelések és előrejelzések megtekintéséhez.

A térkép megváltoztatása: kattintson a fekete keresztel jelölt zöld gombra ráközelítéshez, a vonallal jelölt zöld gombra távolításhoz, vagy a zöld nyilakra a szomszédos térképek eléréséhez.


METAR-TAF: